sensor_id;sensor_type;location;lat;lon;timestamp;pressure;altitude;pressure_sealevel;temperature;humidity
27334;BME280;14817;57.104;-2.094;2023-03-26T00:01:18;99818.16;;;2.17;100.00
27334;BME280;14817;57.104;-2.094;2023-03-26T00:03:47;99817.94;;;2.20;100.00
27334;BME280;14817;57.104;-2.094;2023-03-26T00:06:30;99810.94;;;2.19;100.00
27334;BME280;14817;57.104;-2.094;2023-03-26T00:09:00;99814.56;;;2.18;100.00
27334;BME280;14817;57.104;-2.094;2023-03-26T00:11:28;99823.44;;;2.17;100.00
27334;BME280;14817;57.104;-2.094;2023-03-26T00:13:56;99818.16;;;2.17;100.00
27334;BME280;14817;57.104;-2.094;2023-03-26T00:16:26;99811.09;;;2.18;100.00
27334;BME280;14817;57.104;-2.094;2023-03-26T00:18:54;99812.03;;;2.17;100.00
27334;BME280;14817;57.104;-2.094;2023-03-26T00:21:23;99814.91;;;2.14;100.00
27334;BME280;14817;57.104;-2.094;2023-03-26T00:23:55;99815.03;;;2.12;100.00
27334;BME280;14817;57.104;-2.094;2023-03-26T00:26:25;99817.78;;;2.11;100.00
27334;BME280;14817;57.104;-2.094;2023-03-26T00:28:52;99823.19;;;2.09;100.00
27334;BME280;14817;57.104;-2.094;2023-03-26T00:31:20;99824.03;;;2.10;100.00
27334;BME280;14817;57.104;-2.094;2023-03-26T00:33:49;99828.69;;;2.06;100.00
27334;BME280;14817;57.104;-2.094;2023-03-26T00:36:20;99831.13;;;2.09;100.00
27334;BME280;14817;57.104;-2.094;2023-03-26T00:38:48;99824.38;;;2.05;100.00
27334;BME280;14817;57.104;-2.094;2023-03-26T00:41:16;99824.97;;;2.09;100.00
27334;BME280;14817;57.104;-2.094;2023-03-26T00:43:45;99825.09;;;2.07;100.00
27334;BME280;14817;57.104;-2.094;2023-03-26T00:46:12;99827.97;;;2.04;100.00
27334;BME280;14817;57.104;-2.094;2023-03-26T00:48:39;99832.50;;;2.02;100.00
27334;BME280;14817;57.104;-2.094;2023-03-26T00:51:16;99829.53;;;2.07;100.00
27334;BME280;14817;57.104;-2.094;2023-03-26T00:53:45;99830.38;;;2.07;100.00
27334;BME280;14817;57.104;-2.094;2023-03-26T00:56:13;99833.75;;;2.09;100.00
27334;BME280;14817;57.104;-2.094;2023-03-26T00:58:40;99833.75;;;2.09;100.00
27334;BME280;14817;57.104;-2.094;2023-03-26T01:01:11;99838.78;;;2.12;100.00
27334;BME280;14817;57.104;-2.094;2023-03-26T01:03:43;99836.41;;;2.20;100.00
27334;BME280;14817;57.104;-2.094;2023-03-26T01:06:33;99835.81;;;2.28;100.00
27334;BME280;14817;57.104;-2.094;2023-03-26T01:09:13;99836.22;;;2.35;100.00
27334;BME280;14817;57.104;-2.094;2023-03-26T01:11:42;99834.78;;;2.31;100.00
27334;BME280;14817;57.104;-2.094;2023-03-26T01:14:19;99838.38;;;2.41;100.00
27334;BME280;14817;57.104;-2.094;2023-03-26T01:16:56;99837.91;;;2.47;100.00
27334;BME280;14817;57.104;-2.094;2023-03-26T01:22:14;99850.56;;;2.55;100.00
27334;BME280;14817;57.104;-2.094;2023-03-26T01:24:42;99842.84;;;2.52;100.00
27334;BME280;14817;57.104;-2.094;2023-03-26T01:32:22;99841.78;;;2.65;100.00
27334;BME280;14817;57.104;-2.094;2023-03-26T01:43:31;99848.53;;;2.70;100.00
27334;BME280;14817;57.104;-2.094;2023-03-26T01:46:04;99851.16;;;2.70;100.00
27334;BME280;14817;57.104;-2.094;2023-03-26T01:48:37;99846.72;;;2.70;100.00
27334;BME280;14817;57.104;-2.094;2023-03-26T01:51:05;99851.63;;;2.63;100.00
27334;BME280;14817;57.104;-2.094;2023-03-26T01:53:44;99856.19;;;2.61;100.00
27334;BME280;14817;57.104;-2.094;2023-03-26T02:05:40;99857.66;;;2.65;100.00
27334;BME280;14817;57.104;-2.094;2023-03-26T02:08:34;99859.09;;;2.70;100.00
27334;BME280;14817;57.104;-2.094;2023-03-26T02:11:06;99861.63;;;2.71;100.00
27334;BME280;14817;57.104;-2.094;2023-03-26T02:13:38;99857.91;;;2.62;100.00
27334;BME280;14817;57.104;-2.094;2023-03-26T02:16:09;99853.56;;;2.73;100.00
27334;BME280;14817;57.104;-2.094;2023-03-26T02:18:40;99859.94;;;2.70;100.00
27334;BME280;14817;57.104;-2.094;2023-03-26T02:21:13;99857.53;;;2.67;100.00
27334;BME280;14817;57.104;-2.094;2023-03-26T02:23:42;99856.09;;;2.63;100.00
27334;BME280;14817;57.104;-2.094;2023-03-26T02:26:15;99859.69;;;2.62;100.00
27334;BME280;14817;57.104;-2.094;2023-03-26T02:28:53;99859.22;;;2.68;100.00
27334;BME280;14817;57.104;-2.094;2023-03-26T02:31:20;99862.81;;;2.67;100.00
27334;BME280;14817;57.104;-2.094;2023-03-26T02:33:47;99865.47;;;2.67;100.00
27334;BME280;14817;57.104;-2.094;2023-03-26T02:36:15;99867.75;;;2.60;100.00
27334;BME280;14817;57.104;-2.094;2023-03-26T02:38:46;99863.41;;;2.59;100.00
27334;BME280;14817;57.104;-2.094;2023-03-26T02:41:13;99868.59;;;2.61;100.00
27334;BME280;14817;57.104;-2.094;2023-03-26T02:43:54;99869.41;;;2.61;100.00
27334;BME280;14817;57.104;-2.094;2023-03-26T02:46:26;99866.06;;;2.59;100.00
27334;BME280;14817;57.104;-2.094;2023-03-26T02:49:04;99870.84;;;2.54;100.00
27334;BME280;14817;57.104;-2.094;2023-03-26T02:51:32;99869.53;;;2.60;100.00
27334;BME280;14817;57.104;-2.094;2023-03-26T02:54:03;99869.78;;;2.57;100.00
27334;BME280;14817;57.104;-2.094;2023-03-26T02:56:46;99868.69;;;2.59;100.00
27334;BME280;14817;57.104;-2.094;2023-03-26T02:59:37;99871.13;;;2.62;100.00
27334;BME280;14817;57.104;-2.094;2023-03-26T03:02:26;99871.81;;;2.64;100.00
27334;BME280;14817;57.104;-2.094;2023-03-26T03:05:02;99869.66;;;2.58;100.00
27334;BME280;14817;57.104;-2.094;2023-03-26T03:07:32;99875.41;;;2.52;100.00
27334;BME280;14817;57.104;-2.094;2023-03-26T03:10:05;99870.84;;;2.54;100.00
27334;BME280;14817;57.104;-2.094;2023-03-26T03:12:57;99874.69;;;2.50;100.00
27334;BME280;14817;57.104;-2.094;2023-03-26T03:15:24;99878.97;;;2.40;100.00
27334;BME280;14817;57.104;-2.094;2023-03-26T03:17:50;99866.00;;;2.37;100.00
27334;BME280;14817;57.104;-2.094;2023-03-26T03:20:17;99874.41;;;2.31;100.00
27334;BME280;14817;57.104;-2.094;2023-03-26T03:22:44;99868.00;;;2.22;100.00
27334;BME280;14817;57.104;-2.094;2023-03-26T03:25:11;99868.94;;;2.10;100.00
27334;BME280;14817;57.104;-2.094;2023-03-26T03:27:40;99874.34;;;2.19;100.00
27334;BME280;14817;57.104;-2.094;2023-03-26T03:30:12;99871.91;;;2.05;100.00
27334;BME280;14817;57.104;-2.094;2023-03-26T03:32:45;99877.47;;;1.89;100.00
27334;BME280;14817;57.104;-2.094;2023-03-26T03:35:17;99885.84;;;1.83;100.00
27334;BME280;14817;57.104;-2.094;2023-03-26T03:37:48;99876.13;;;1.83;100.00
27334;BME280;14817;57.104;-2.094;2023-03-26T03:40:15;99879.00;;;1.80;100.00
27334;BME280;14817;57.104;-2.094;2023-03-26T03:42:43;99876.34;;;1.80;100.00
27334;BME280;14817;57.104;-2.094;2023-03-26T03:45:12;99876.78;;;1.74;100.00
27334;BME280;14817;57.104;-2.094;2023-03-26T03:47:58;99877.03;;;1.71;100.00
27334;BME280;14817;57.104;-2.094;2023-03-26T03:50:34;99877.97;;;1.70;100.00
27334;BME280;14817;57.104;-2.094;2023-03-26T03:53:27;99878.09;;;1.69;100.00
27334;BME280;14817;57.104;-2.094;2023-03-26T03:55:58;99878.31;;;1.66;100.00
27334;BME280;14817;57.104;-2.094;2023-03-26T03:58:44;99877.47;;;1.65;100.00
27334;BME280;14817;57.104;-2.094;2023-03-26T04:01:17;99878.94;;;1.69;100.00
27334;BME280;14817;57.104;-2.094;2023-03-26T04:03:57;99875.13;;;1.73;100.00
27334;BME280;14817;57.104;-2.094;2023-03-26T04:06:37;99881.00;;;1.77;100.00
27334;BME280;14817;57.104;-2.094;2023-03-26T04:09:06;99881.53;;;1.82;100.00
27334;BME280;14817;57.104;-2.094;2023-03-26T04:11:35;99887.53;;;1.84;100.00
27334;BME280;14817;57.104;-2.094;2023-03-26T04:14:17;99882.84;;;1.88;100.00
27334;BME280;14817;57.104;-2.094;2023-03-26T04:16:54;99889.59;;;1.92;100.00
27334;BME280;14817;57.104;-2.094;2023-03-26T04:19:22;99891.69;;;1.99;100.00
27334;BME280;14817;57.104;-2.094;2023-03-26T04:21:50;99888.50;;;2.07;100.00
27334;BME280;14817;57.104;-2.094;2023-03-26T04:24:19;99892.41;;;2.01;100.00
27334;BME280;14817;57.104;-2.094;2023-03-26T04:27:11;99891.00;;;2.09;100.00
27334;BME280;14817;57.104;-2.094;2023-03-26T04:29:42;99895.69;;;2.05;100.00
27334;BME280;14817;57.104;-2.094;2023-03-26T04:32:23;99895.94;;;2.13;100.00
27334;BME280;14817;57.104;-2.094;2023-03-26T04:34:53;99905.56;;;2.14;100.00
27334;BME280;14817;57.104;-2.094;2023-03-26T04:37:30;99907.84;;;2.19;100.00
27334;BME280;14817;57.104;-2.094;2023-03-26T04:40:12;99920.22;;;2.18;100.00
27334;BME280;14817;57.104;-2.094;2023-03-26T04:42:51;99907.41;;;2.25;100.00
27334;BME280;14817;57.104;-2.094;2023-03-26T04:45:43;99911.47;;;2.18;100.00
27334;BME280;14817;57.104;-2.094;2023-03-26T04:48:11;99915.56;;;2.22;100.00
27334;BME280;14817;57.104;-2.094;2023-03-26T04:50:42;99916.16;;;2.25;100.00
27334;BME280;14817;57.104;-2.094;2023-03-26T04:53:13;99914.97;;;2.30;100.00
27334;BME280;14817;57.104;-2.094;2023-03-26T04:56:04;99921.22;;;2.29;100.00
27334;BME280;14817;57.104;-2.094;2023-03-26T04:58:56;99920.78;;;2.35;100.00
27334;BME280;14817;57.104;-2.094;2023-03-26T05:01:26;99927.84;;;2.34;100.00
27334;BME280;14817;57.104;-2.094;2023-03-26T05:03:58;99925.44;;;2.31;100.00
27334;BME280;14817;57.104;-2.094;2023-03-26T05:06:26;99926.28;;;2.32;100.00
27334;BME280;14817;57.104;-2.094;2023-03-26T05:08:54;99934.31;;;2.30;100.00
27334;BME280;14817;57.104;-2.094;2023-03-26T05:11:50;99933.03;;;2.36;100.00
27334;BME280;14817;57.104;-2.094;2023-03-26T05:14:17;99932.91;;;2.37;100.00
27334;BME280;14817;57.104;-2.094;2023-03-26T05:16:47;99937.00;;;2.41;100.00
27334;BME280;14817;57.104;-2.094;2023-03-26T05:19:15;99944.66;;;2.33;100.00
27334;BME280;14817;57.104;-2.094;2023-03-26T05:21:42;99934.47;;;2.40;100.00
27334;BME280;14817;57.104;-2.094;2023-03-26T05:24:09;99941.44;;;2.41;100.00
27334;BME280;14817;57.104;-2.094;2023-03-26T05:26:36;99935.31;;;2.40;100.00
27334;BME280;14817;57.104;-2.094;2023-03-26T05:29:03;99939.66;;;2.41;100.00
27334;BME280;14817;57.104;-2.094;2023-03-26T05:31:51;99948.31;;;2.43;100.00
27334;BME280;14817;57.104;-2.094;2023-03-26T05:34:19;99954.56;;;2.54;100.00
27334;BME280;14817;57.104;-2.094;2023-03-26T05:36:46;99954.19;;;2.47;100.00
27334;BME280;14817;57.104;-2.094;2023-03-26T05:39:43;99955.91;;;2.48;100.00
27334;BME280;14817;57.104;-2.094;2023-03-26T05:42:29;99956.84;;;2.47;100.00
27334;BME280;14817;57.104;-2.094;2023-03-26T05:45:14;99960.06;;;2.39;100.00
27334;BME280;14817;57.104;-2.094;2023-03-26T05:47:41;99958.41;;;2.50;100.00
27334;BME280;14817;57.104;-2.094;2023-03-26T05:50:10;99959.47;;;2.47;100.00
27334;BME280;14817;57.104;-2.094;2023-03-26T05:52:39;99970.03;;;2.47;100.00
27334;BME280;14817;57.104;-2.094;2023-03-26T05:55:43;99974.16;;;2.51;100.00
27334;BME280;14817;57.104;-2.094;2023-03-26T05:58:34;99979.16;;;2.43;100.00
27334;BME280;14817;57.104;-2.094;2023-03-26T06:01:20;99985.31;;;2.43;100.00
27334;BME280;14817;57.104;-2.094;2023-03-26T06:04:06;99985.81;;;2.49;100.00
27334;BME280;14817;57.104;-2.094;2023-03-26T06:06:38;99984.22;;;2.46;100.00
27334;BME280;14817;57.104;-2.094;2023-03-26T06:09:04;99988.78;;;2.44;100.00
27334;BME280;14817;57.104;-2.094;2023-03-26T06:11:32;99994.69;;;2.48;100.00
27334;BME280;14817;57.104;-2.094;2023-03-26T06:14:01;100000.09;;;2.46;100.00
27334;BME280;14817;57.104;-2.094;2023-03-26T06:16:28;99994.19;;;2.42;100.00
27334;BME280;14817;57.104;-2.094;2023-03-26T06:19:08;100009.19;;;2.42;100.00
27334;BME280;14817;57.104;-2.094;2023-03-26T06:22:07;100006.69;;;2.52;100.00
27334;BME280;14817;57.104;-2.094;2023-03-26T06:24:54;100012.63;;;2.55;100.00
27334;BME280;14817;57.104;-2.094;2023-03-26T06:27:36;100015.16;;;2.57;100.00
27334;BME280;14817;57.104;-2.094;2023-03-26T06:30:38;100021.09;;;2.72;100.00
27334;BME280;14817;57.104;-2.094;2023-03-26T06:33:20;100017.41;;;2.85;100.00
27334;BME280;14817;57.104;-2.094;2023-03-26T06:35:50;100019.91;;;2.76;100.00
27334;BME280;14817;57.104;-2.094;2023-03-26T06:38:17;100029.06;;;2.83;100.00
27334;BME280;14817;57.104;-2.094;2023-03-26T06:40:44;100018.50;;;2.94;100.00
27334;BME280;14817;57.104;-2.094;2023-03-26T06:43:31;100030.69;;;2.97;100.00
27334;BME280;14817;57.104;-2.094;2023-03-26T06:46:19;100025.97;;;2.89;100.00
27334;BME280;14817;57.104;-2.094;2023-03-26T06:49:05;100030.19;;;3.03;100.00
27334;BME280;14817;57.104;-2.094;2023-03-26T06:51:50;100039.09;;;3.02;100.00
27334;BME280;14817;57.104;-2.094;2023-03-26T06:54:35;100039.50;;;3.20;100.00
27334;BME280;14817;57.104;-2.094;2023-03-26T06:57:12;100044.94;;;3.18;100.00
27334;BME280;14817;57.104;-2.094;2023-03-26T06:59:58;100051.78;;;3.21;100.00
27334;BME280;14817;57.104;-2.094;2023-03-26T07:02:44;100046.03;;;3.38;100.00
27334;BME280;14817;57.104;-2.094;2023-03-26T07:05:46;100052.81;;;3.65;100.00
27334;BME280;14817;57.104;-2.094;2023-03-26T07:08:33;100050.91;;;3.67;100.00
27334;BME280;14817;57.104;-2.094;2023-03-26T07:11:38;100071.81;;;3.70;100.00
27334;BME280;14817;57.104;-2.094;2023-03-26T07:14:24;100066.16;;;3.75;100.00
27334;BME280;14817;57.104;-2.094;2023-03-26T07:17:02;100072.91;;;3.67;100.00
27334;BME280;14817;57.104;-2.094;2023-03-26T07:19:49;100089.50;;;3.58;100.00
27334;BME280;14817;57.104;-2.094;2023-03-26T07:22:23;100082.31;;;3.72;100.00
27334;BME280;14817;57.104;-2.094;2023-03-26T07:25:13;100085.44;;;3.65;100.00
27334;BME280;14817;57.104;-2.094;2023-03-26T07:30:38;100096.50;;;3.82;100.00
27334;BME280;14817;57.104;-2.094;2023-03-26T07:33:34;100102.16;;;3.77;100.00
27334;BME280;14817;57.104;-2.094;2023-03-26T07:39:41;100102.53;;;3.73;100.00
27334;BME280;14817;57.104;-2.094;2023-03-26T07:45:42;100119.63;;;3.91;100.00
27334;BME280;14817;57.104;-2.094;2023-03-26T07:48:44;100115.91;;;3.94;100.00
27334;BME280;14817;57.104;-2.094;2023-03-26T07:51:47;100118.53;;;4.05;100.00
27334;BME280;14817;57.104;-2.094;2023-03-26T07:54:26;100120.38;;;3.93;100.00
27334;BME280;14817;57.104;-2.094;2023-03-26T08:00:27;100128.63;;;5.32;100.00
27334;BME280;14817;57.104;-2.094;2023-03-26T08:03:15;100124.38;;;6.73;100.00
27334;BME280;14817;57.104;-2.094;2023-03-26T08:06:41;100127.38;;;7.09;100.00
27334;BME280;14817;57.104;-2.094;2023-03-26T08:09:39;100132.19;;;7.92;100.00
27334;BME280;14817;57.104;-2.094;2023-03-26T08:15:35;100140.50;;;8.99;100.00
27334;BME280;14817;57.104;-2.094;2023-03-26T08:21:01;100153.28;;;6.98;100.00
27334;BME280;14817;57.104;-2.094;2023-03-26T08:23:45;100154.03;;;7.95;100.00
27334;BME280;14817;57.104;-2.094;2023-03-26T08:26:18;100152.81;;;8.92;100.00
27334;BME280;14817;57.104;-2.094;2023-03-26T08:31:26;100155.28;;;8.94;100.00
27334;BME280;14817;57.104;-2.094;2023-03-26T08:33:55;100149.94;;;9.92;100.00
27334;BME280;14817;57.104;-2.094;2023-03-26T08:36:22;100161.00;;;10.23;100.00
27334;BME280;14817;57.104;-2.094;2023-03-26T08:38:49;100164.88;;;8.96;100.00
27334;BME280;14817;57.104;-2.094;2023-03-26T08:44:42;100164.44;;;10.07;100.00
27334;BME280;14817;57.104;-2.094;2023-03-26T08:47:38;100169.41;;;10.02;100.00
27334;BME280;14817;57.104;-2.094;2023-03-26T08:56:50;100191.53;;;7.84;100.00
27334;BME280;14817;57.104;-2.094;2023-03-26T09:25:07;100219.81;;;10.33;100.00
27334;BME280;14817;57.104;-2.094;2023-03-26T09:35:52;100238.56;;;7.75;100.00
27334;BME280;14817;57.104;-2.094;2023-03-26T09:41:15;100242.66;;;6.81;100.00
27334;BME280;14817;57.104;-2.094;2023-03-26T09:55:17;100272.00;;;6.69;100.00
27334;BME280;14817;57.104;-2.094;2023-03-26T10:00:48;100279.88;;;6.19;100.00
27334;BME280;14817;57.104;-2.094;2023-03-26T10:11:39;100292.31;;;5.98;100.00
27334;BME280;14817;57.104;-2.094;2023-03-26T10:17:12;100303.19;;;6.37;100.00
27334;BME280;14817;57.104;-2.094;2023-03-26T10:23:05;100296.88;;;8.47;100.00
27334;BME280;14817;57.104;-2.094;2023-03-26T10:28:30;100300.81;;;8.90;100.00
27334;BME280;14817;57.104;-2.094;2023-03-26T10:40:13;100307.38;;;10.22;100.00
27334;BME280;14817;57.104;-2.094;2023-03-26T10:43:09;100314.19;;;9.81;100.00
27334;BME280;14817;57.104;-2.094;2023-03-26T10:46:20;100314.16;;;10.17;100.00
27334;BME280;14817;57.104;-2.094;2023-03-26T10:52:07;100316.88;;;10.35;100.00
27334;BME280;14817;57.104;-2.094;2023-03-26T10:54:57;100324.31;;;9.42;100.00
27334;BME280;14817;57.104;-2.094;2023-03-26T10:57:51;100339.50;;;8.76;100.00
27334;BME280;14817;57.104;-2.094;2023-03-26T11:00:20;100360.50;;;8.03;100.00
27334;BME280;14817;57.104;-2.094;2023-03-26T11:08:40;100382.63;;;5.54;100.00
27334;BME280;14817;57.104;-2.094;2023-03-26T11:33:40;100435.06;;;5.29;100.00
27334;BME280;14817;57.104;-2.094;2023-03-26T11:36:16;100438.78;;;5.38;100.00
27334;BME280;14817;57.104;-2.094;2023-03-26T11:38:49;100436.34;;;5.69;100.00
27334;BME280;14817;57.104;-2.094;2023-03-26T11:41:30;100435.38;;;5.70;100.00
27334;BME280;14817;57.104;-2.094;2023-03-26T11:44:09;100446.13;;;5.01;100.00
27334;BME280;14817;57.104;-2.094;2023-03-26T11:46:42;100454.94;;;5.13;100.00
27334;BME280;14817;57.104;-2.094;2023-03-26T11:49:15;100454.16;;;4.77;100.00
27334;BME280;14817;57.104;-2.094;2023-03-26T11:51:48;100449.63;;;5.35;100.00
27334;BME280;14817;57.104;-2.094;2023-03-26T11:54:15;100453.47;;;5.87;100.00
27334;BME280;14817;57.104;-2.094;2023-03-26T12:02:29;100466.63;;;5.78;100.00
27334;BME280;14817;57.104;-2.094;2023-03-26T12:07:48;100482.22;;;4.68;100.00
27334;BME280;14817;57.104;-2.094;2023-03-26T12:10:34;100496.06;;;4.60;100.00
27334;BME280;14817;57.104;-2.094;2023-03-26T12:16:05;100504.59;;;4.53;100.00
27334;BME280;14817;57.104;-2.094;2023-03-26T12:18:33;100508.88;;;4.78;100.00
27334;BME280;14817;57.104;-2.094;2023-03-26T12:21:16;100507.09;;;5.47;100.00
27334;BME280;14817;57.104;-2.094;2023-03-26T12:26:19;100497.91;;;6.19;100.00
27334;BME280;14817;57.104;-2.094;2023-03-26T12:28:48;100499.75;;;6.51;100.00
27334;BME280;14817;57.104;-2.094;2023-03-26T12:31:16;100504.84;;;6.43;100.00
27334;BME280;14817;57.104;-2.094;2023-03-26T12:34:02;100514.53;;;6.32;100.00
27334;BME280;14817;57.104;-2.094;2023-03-26T12:36:31;100517.50;;;5.73;100.00
27334;BME280;14817;57.104;-2.094;2023-03-26T12:39:24;100518.97;;;5.66;100.00
27334;BME280;14817;57.104;-2.094;2023-03-26T12:42:29;100533.19;;;5.53;100.00
27334;BME280;14817;57.104;-2.094;2023-03-26T12:45:27;100528.81;;;5.41;100.00
27334;BME280;14817;57.104;-2.094;2023-03-26T12:47:55;100538.34;;;5.21;100.00
27334;BME280;14817;57.104;-2.094;2023-03-26T12:56:42;100556.78;;;5.11;100.00
27334;BME280;14817;57.104;-2.094;2023-03-26T13:05:40;100589.91;;;4.70;100.00
27334;BME280;14817;57.104;-2.094;2023-03-26T13:16:26;100580.44;;;5.15;100.00
27334;BME280;14817;57.104;-2.094;2023-03-26T13:19:08;100589.59;;;5.10;100.00
27334;BME280;14817;57.104;-2.094;2023-03-26T13:24:37;100585.44;;;5.30;100.00
27334;BME280;14817;57.104;-2.094;2023-03-26T13:30:21;100579.31;;;5.52;100.00
27334;BME280;14817;57.104;-2.094;2023-03-26T13:35:46;100583.34;;;5.81;100.00
27334;BME280;14817;57.104;-2.094;2023-03-26T13:38:24;100586.81;;;5.92;100.00
27334;BME280;14817;57.104;-2.094;2023-03-26T13:48:41;100594.22;;;5.89;100.00
27334;BME280;14817;57.104;-2.094;2023-03-26T13:51:24;100589.25;;;5.73;100.00
27334;BME280;14817;57.104;-2.094;2023-03-26T13:54:00;100597.94;;;5.86;100.00
27334;BME280;14817;57.104;-2.094;2023-03-26T13:56:37;100599.78;;;6.20;100.00
27334;BME280;14817;57.104;-2.094;2023-03-26T13:59:18;100605.22;;;6.07;100.00
27334;BME280;14817;57.104;-2.094;2023-03-26T14:02:22;100612.22;;;5.97;100.00
27334;BME280;14817;57.104;-2.094;2023-03-26T14:04:54;100598.19;;;5.83;100.00
27334;BME280;14817;57.104;-2.094;2023-03-26T14:07:24;100595.78;;;5.91;100.00
27334;BME280;14817;57.104;-2.094;2023-03-26T14:09:57;100607.47;;;5.55;100.00
27334;BME280;14817;57.104;-2.094;2023-03-26T14:14:59;100608.31;;;5.67;100.00
27334;BME280;14817;57.104;-2.094;2023-03-26T14:17:38;100606.16;;;5.83;100.00
27334;BME280;14817;57.104;-2.094;2023-03-26T14:31:19;100634.72;;;6.15;100.00
27334;BME280;14817;57.104;-2.094;2023-03-26T14:37:02;100651.50;;;5.46;100.00
27334;BME280;14817;57.104;-2.094;2023-03-26T14:39:56;100655.00;;;5.47;100.00
27334;BME280;14817;57.104;-2.094;2023-03-26T14:42:51;100672.38;;;5.16;100.00
27334;BME280;14817;57.104;-2.094;2023-03-26T14:53:30;100686.06;;;4.61;100.00
27334;BME280;14817;57.104;-2.094;2023-03-26T15:50:31;100733.03;;;4.85;100.00
27334;BME280;14817;57.104;-2.094;2023-03-26T15:58:27;100739.19;;;4.73;100.00
27334;BME280;14817;57.104;-2.094;2023-03-26T16:07:10;100753.81;;;4.91;100.00
27334;BME280;14817;57.104;-2.094;2023-03-26T16:10:19;100762.81;;;4.88;100.00
27334;BME280;14817;57.104;-2.094;2023-03-26T16:15:46;100762.41;;;4.82;100.00
27334;BME280;14817;57.104;-2.094;2023-03-26T16:18:34;100756.84;;;4.48;100.00
27334;BME280;14817;57.104;-2.094;2023-03-26T16:21:31;100772.13;;;4.32;100.00
27334;BME280;14817;57.104;-2.094;2023-03-26T16:29:28;100773.63;;;4.23;100.00
27334;BME280;14817;57.104;-2.094;2023-03-26T16:34:54;100783.06;;;4.53;100.00
27334;BME280;14817;57.104;-2.094;2023-03-26T16:46:13;100796.94;;;4.56;100.00
27334;BME280;14817;57.104;-2.094;2023-03-26T16:54:13;100823.03;;;4.75;100.00
27334;BME280;14817;57.104;-2.094;2023-03-26T16:57:19;100812.31;;;4.77;100.00
27334;BME280;14817;57.104;-2.094;2023-03-26T17:05:19;100832.81;;;4.49;100.00
27334;BME280;14817;57.104;-2.094;2023-03-26T17:07:59;100835.59;;;4.07;100.00
27334;BME280;14817;57.104;-2.094;2023-03-26T17:10:34;100847.22;;;3.92;100.00
27334;BME280;14817;57.104;-2.094;2023-03-26T17:13:07;100851.44;;;3.55;100.00
27334;BME280;14817;57.104;-2.094;2023-03-26T17:18:38;100846.53;;;3.48;100.00
27334;BME280;14817;57.104;-2.094;2023-03-26T17:26:42;100852.56;;;3.65;100.00
27334;BME280;14817;57.104;-2.094;2023-03-26T17:32:09;100854.09;;;3.55;100.00
27334;BME280;14817;57.104;-2.094;2023-03-26T17:37:09;100854.78;;;3.44;100.00
27334;BME280;14817;57.104;-2.094;2023-03-26T17:42:10;100863.28;;;3.49;100.00
27334;BME280;14817;57.104;-2.094;2023-03-26T17:47:16;100876.06;;;3.42;100.00
27334;BME280;14817;57.104;-2.094;2023-03-26T17:49:49;100866.22;;;3.44;100.00
27334;BME280;14817;57.104;-2.094;2023-03-26T17:52:21;100865.84;;;3.51;100.00
27334;BME280;14817;57.104;-2.094;2023-03-26T17:54:53;100875.59;;;3.50;100.00
27334;BME280;14817;57.104;-2.094;2023-03-26T17:57:26;100872.59;;;3.27;100.00
27334;BME280;14817;57.104;-2.094;2023-03-26T17:59:57;100884.38;;;3.36;100.00
27334;BME280;14817;57.104;-2.094;2023-03-26T18:02:36;100886.09;;;3.37;100.00
27334;BME280;14817;57.104;-2.094;2023-03-26T18:05:09;100885.53;;;3.32;100.00
27334;BME280;14817;57.104;-2.094;2023-03-26T18:18:19;100901.16;;;3.08;100.00
27334;BME280;14817;57.104;-2.094;2023-03-26T18:20:48;100907.50;;;3.05;100.00
27334;BME280;14817;57.104;-2.094;2023-03-26T18:23:27;100916.19;;;3.08;100.00
27334;BME280;14817;57.104;-2.094;2023-03-26T18:26:14;100917.97;;;2.93;100.00
27334;BME280;14817;57.104;-2.094;2023-03-26T18:28:44;100917.59;;;2.99;100.00
27334;BME280;14817;57.104;-2.094;2023-03-26T18:31:19;100919.19;;;2.87;100.00
27334;BME280;14817;57.104;-2.094;2023-03-26T18:33:49;100927.50;;;2.81;100.00
27334;BME280;14817;57.104;-2.094;2023-03-26T18:36:22;100916.34;;;2.76;100.00
27334;BME280;14817;57.104;-2.094;2023-03-26T18:38:50;100919.56;;;2.81;100.00
27334;BME280;14817;57.104;-2.094;2023-03-26T18:43:53;100933.69;;;2.65;100.00
27334;BME280;14817;57.104;-2.094;2023-03-26T18:46:21;100938.03;;;2.52;100.00
27334;BME280;14817;57.104;-2.094;2023-03-26T18:48:49;100943.72;;;2.60;100.00
27334;BME280;14817;57.104;-2.094;2023-03-26T18:51:18;100941.78;;;2.48;100.00
27334;BME280;14817;57.104;-2.094;2023-03-26T18:53:53;100950.13;;;2.56;100.00
27334;BME280;14817;57.104;-2.094;2023-03-26T18:56:38;100955.41;;;2.56;100.00
27334;BME280;14817;57.104;-2.094;2023-03-26T19:01:46;100958.41;;;2.50;100.00
27334;BME280;14817;57.104;-2.094;2023-03-26T19:04:15;100955.34;;;2.42;100.00
27334;BME280;14817;57.104;-2.094;2023-03-26T19:06:42;100959.13;;;2.38;100.00
27334;BME280;14817;57.104;-2.094;2023-03-26T19:09:10;100966.63;;;2.30;100.00
27334;BME280;14817;57.104;-2.094;2023-03-26T19:11:55;100970.38;;;2.25;100.00
27334;BME280;14817;57.104;-2.094;2023-03-26T19:14:23;100972.09;;;2.27;100.00
27334;BME280;14817;57.104;-2.094;2023-03-26T19:16:56;100972.63;;;2.17;100.00
27334;BME280;14817;57.104;-2.094;2023-03-26T19:19:29;100971.75;;;2.17;100.00
27334;BME280;14817;57.104;-2.094;2023-03-26T19:21:57;100983.94;;;2.19;100.00
27334;BME280;14817;57.104;-2.094;2023-03-26T19:24:25;100978.94;;;2.15;100.00
27334;BME280;14817;57.104;-2.094;2023-03-26T19:26:53;100983.03;;;2.04;100.00
27334;BME280;14817;57.104;-2.094;2023-03-26T19:29:28;100993.16;;;2.12;100.00
27334;BME280;14817;57.104;-2.094;2023-03-26T19:32:02;100997.69;;;2.10;100.00
27334;BME280;14817;57.104;-2.094;2023-03-26T19:34:37;101000.75;;;2.18;100.00
27334;BME280;14817;57.104;-2.094;2023-03-26T19:37:25;101003.97;;;2.23;100.00
27334;BME280;14817;57.104;-2.094;2023-03-26T19:39:53;101010.81;;;2.12;100.00
27334;BME280;14817;57.104;-2.094;2023-03-26T19:42:29;101012.69;;;2.10;100.00
27334;BME280;14817;57.104;-2.094;2023-03-26T19:45:18;101010.66;;;1.99;100.00